M I D A S
Marine Information and Data Acquisition System
Tripno 947 of the Zeeleeuw from 2005-07-07 06:26:53 to 2005-07-07 13:50:01
Back to CruiseResearch ActivitiesStationsMapUnderway DataData graphs

EquipmentUnitsComment
TimeDGPSUTC
LatitudeDGPSDM.mWGS84
LongitudeDGPSDM.mWGS84
HeadingGyrodeg 
SOGDGPSknotsSpeed over ground
COGDGPSdegCourse over ground
DepthEcho soundermeters200 kHz
Missing or incorrect values are displayed as -999
Navigation data collected by the RV Zeeleeuw from 2005-07-07 06:32:39 to 2005-07-07 14:01:09
                                                                                    Next 1000 lines
Time Latitude Longitude Heading SOG COG Depth
2005-07-07 06:32:48 51°13.594 2°56.104 103.7 0.9 294 5.6
2005-07-07 06:32:53 51°13.595 2°56.102 104.5 0.8 298 5.6
2005-07-07 06:32:59 51°13.596 2°56.101 103.8 0.5 299 5.7
2005-07-07 06:33:04 51°13.596 2°56.099 101.9 0.7 299 5.7
2005-07-07 06:33:09 51°13.597 2°56.096 100.2 1.3 285 5.7
2005-07-07 06:33:13 51°13.597 2°56.094 100.1 1.5 285 5.8
2005-07-07 06:33:19 51°13.597 2°56.091 100.7 1.5 286 5.3
2005-07-07 06:33:24 51°13.598 2°56.09 101.2 1.5 286 6
2005-07-07 06:33:28 51°13.598 2°56.09 102.7 0.1 14 4.9
2005-07-07 06:33:34 51°13.598 2°56.092 105.7 0.6 95 -999
2005-07-07 06:33:39 51°13.598 2°56.094 108.1 1 102 5.9
2005-07-07 06:33:44 51°13.598 2°56.097 109.7 1.2 106 5.1
2005-07-07 06:33:49 51°13.597 2°56.102 111.5 1.6 103 5.7
2005-07-07 06:33:54 51°13.596 2°56.106 113.7 2.2 113 5.7
2005-07-07 06:33:59 51°13.594 2°56.111 117.8 2.6 116 5.7
2005-07-07 06:34:04 51°13.592 2°56.117 120.7 2.6 116 5.8
2005-07-07 06:34:09 51°13.589 2°56.123 124.7 2.8 121 5.8
2005-07-07 06:34:14 51°13.587 2°56.127 128.1 2.8 121 6.5
2005-07-07 06:34:19 51°13.584 2°56.133 130.6 2.8 121 6.5
2005-07-07 06:34:24 51°13.582 2°56.138 132.8 2.8 121 6.5
2005-07-07 06:34:28 51°13.58 2°56.142 135.1 3 133 6.3
2005-07-07 06:34:34 51°13.577 2°56.148 137 3.1 134 5.9
2005-07-07 06:34:38 51°13.574 2°56.152 139 3.2 135 5.5
2005-07-07 06:34:44 51°13.57 2°56.157 140 3.3 136 5.8
2005-07-07 06:34:49 51°13.566 2°56.163 140.7 3.3 136 6.3
2005-07-07 06:34:54 51°13.563 2°56.168 140.9 3.5 134 7.4
2005-07-07 06:34:59 51°13.559 2°56.175 140.2 3.6 132 8.5
2005-07-07 06:35:04 51°13.556 2°56.181 136.9 3.6 132 8.4
2005-07-07 06:35:09 51°13.553 2°56.189 131.7 3.7 120 8.4
2005-07-07 06:35:14 51°13.551 2°56.197 125.7 3.7 120 9.2
2005-07-07 06:35:18 51°13.55 2°56.203 119.5 3.8 109 8.9
2005-07-07 06:35:24 51°13.55 2°56.212 112.9 3.8 109 8.4
2005-07-07 06:35:28 51°13.549 2°56.219 106.6 3.3 98 8.6
2005-07-07 06:35:33 51°13.548 2°56.224 103.8 2.8 99 8.7
2005-07-07 06:35:39 51°13.549 2°56.229 100.1 2 90 8.7
2005-07-07 06:35:44 51°13.549 2°56.231 95 1.5 88 8.6
2005-07-07 06:35:48 51°13.549 2°56.232 90.3 1.2 88 8.7
2005-07-07 06:35:53 51°13.55 2°56.233 86.7 0.5 83 8.7
2005-07-07 06:35:59 51°13.549 2°56.231 84.5 0.4 270 8.7
2005-07-07 06:36:04 51°13.548 2°56.229 82.6 0.9 263 8.6
2005-07-07 06:36:09 51°13.548 2°56.226 81.8 1.1 262 8.6
2005-07-07 06:36:14 51°13.548 2°56.223 81.2 1.3 265 -999
2005-07-07 06:36:20 51°13.549 2°56.221 81.6 1.3 265 -999
2005-07-07 06:36:24 51°13.549 2°56.222 81.9 1.3 265 -999
2005-07-07 06:36:29 51°13.55 2°56.225 78.9 1.1 61 -999
2005-07-07 06:36:34 51°13.551 2°56.228 73.3 1.1 61 5
2005-07-07 06:36:39 51°13.552 2°56.23 68.3 1.5 58 5.1
2005-07-07 06:36:44 51°13.552 2°56.231 64.4 1.2 46 4.8
2005-07-07 06:36:49 51°13.552 2°56.23 61.6 0.3 290 -999
2005-07-07 06:36:54 51°13.551 2°56.228 57.2 1.1 233 -999
2005-07-07 06:36:59 51°13.55 2°56.224 54.6 1.6 236 8.8
2005-07-07 06:37:04 51°13.548 2°56.221 53.3 1.6 236 -999
2005-07-07 06:37:09 51°13.545 2°56.216 51.8 2.4 229 -999
2005-07-07 06:37:15 51°13.543 2°56.211 50.9 2.7 233 -999
2005-07-07 06:37:20 51°13.541 2°56.207 51 2.7 233 5.2
2005-07-07 06:37:24 51°13.54 2°56.205 52 1.4 238 -999
2005-07-07 06:37:29 51°13.54 2°56.205 52 1.4 238 4.8
2005-07-07 06:37:34 51°13.541 2°56.205 49.4 0.8 14 4.9
2005-07-07 06:37:39 51°13.543 2°56.208 45.8 1.1 32 4.8
2005-07-07 06:37:44 51°13.545 2°56.209 39.4 1.5 34 8.6
2005-07-07 06:37:49 51°13.546 2°56.21 36.5 1 38 8.4
2005-07-07 06:37:53 51°13.547 2°56.21 34.7 0.4 37 8.4
2005-07-07 06:37:59 51°13.546 2°56.209 33.5 0.6 207 8.4
2005-07-07 06:38:04 51°13.544 2°56.207 33.2 0.6 207 8.6
2005-07-07 06:38:08 51°13.542 2°56.205 33.7 2 212 9.1
2005-07-07 06:38:13 51°13.539 2°56.202 34.7 2.1 216 -999
2005-07-07 06:38:20 51°13.536 2°56.198 36.3 1.9 216 -999
2005-07-07 06:38:24 51°13.536 2°56.196 38.2 1.5 229 -999
2005-07-07 06:38:29 51°13.536 2°56.196 38.8 0.6 245 -999
2005-07-07 06:38:34 51°13.538 2°56.197 34.8 0.9 359 4.7
2005-07-07 06:38:40 51°13.541 2°56.198 30.4 1.3 3 5
2005-07-07 06:38:44 51°13.544 2°56.198 24.8 2 7 -999
2005-07-07 06:38:49 51°13.545 2°56.199 20.5 1.4 11 5.2
2005-07-07 06:38:54 51°13.546 2°56.199 17.4 1.4 11 5.1
2005-07-07 06:38:59 51°13.545 2°56.198 13.6 0.3 292 4.9
2005-07-07 06:39:04 51°13.543 2°56.198 10.9 0.8 187 4.9
2005-07-07 06:39:09 51°13.541 2°56.197 9.5 0.8 187 5.1
2005-07-07 06:39:13 51°13.538 2°56.196 9.3 1.9 187 -999
2005-07-07 06:39:20 51°13.535 2°56.194 9.6 1.7 199 -999
2005-07-07 06:39:25 51°13.536 2°56.194 10.9 0.3 261 -999
2005-07-07 06:39:29 51°13.538 2°56.193 8.9 1 340 -999
2005-07-07 06:39:33 51°13.541 2°56.193 3.3 1.4 342 4.9
2005-07-07 06:39:40 51°13.545 2°56.19 356.1 2.7 346 4.9
2005-07-07 06:39:44 51°13.548 2°56.188 349.7 2.7 335 5
2005-07-07 06:39:50 51°13.55 2°56.187 345.3 2.5 334 5.2
2005-07-07 06:39:54 51°13.551 2°56.186 341.1 1.6 337 5.7
2005-07-07 06:39:59 51°13.551 2°56.185 337.2 0.6 322 8.9
2005-07-07 06:40:04 51°13.55 2°56.186 332.6 0.6 322 9.1
2005-07-07 06:40:09 51°13.548 2°56.188 328.3 1.1 148 9.1
2005-07-07 06:40:14 51°13.546 2°56.19 325.2 1.6 145 -999
2005-07-07 06:40:19 51°13.544 2°56.193 321.4 1.8 141 -999
2005-07-07 06:40:24 51°13.543 2°56.195 317.9 1.7 138 -999
2005-07-07 06:40:29 51°13.542 2°56.197 315.6 1.1 134 9.1
2005-07-07 06:40:33 51°13.542 2°56.197 313.8 1.1 134 9.2
2005-07-07 06:40:39 51°13.543 2°56.195 310.9 0.7 316 9.1
2005-07-07 06:40:44 51°13.545 2°56.192 308.2 1.4 313 4.8
2005-07-07 06:40:49 51°13.547 2°56.187 304.6 2 309 5
2005-07-07 06:40:53 51°13.548 2°56.183 301 2.6 304 5.1
2005-07-07 06:40:59 51°13.551 2°56.175 299 3.6 299 4.8
2005-07-07 06:41:04 51°13.553 2°56.166 297.2 3.6 299 5.9
2005-07-07 06:41:09 51°13.555 2°56.157 294.6 4.2 290 4.7
2005-07-07 06:41:14 51°13.557 2°56.145 292.2 4.7 286 9.1
2005-07-07 06:41:19 51°13.559 2°56.136 291.4 5.1 286 9.1
2005-07-07 06:41:24 51°13.562 2°56.124 293 5.1 286 9.1
2005-07-07 06:41:29 51°13.565 2°56.112 296.1 5.1 286 9.1
2005-07-07 06:41:34 51°13.569 2°56.101 299.1 5.1 286 9.2
2005-07-07 06:41:39 51°13.574 2°56.088 302.3 6.2 299 9
2005-07-07 06:41:44 51°13.578 2°56.075 302.8 6.2 299 9
2005-07-07 06:41:48 51°13.582 2°56.065 303.2 6.6 300 9
2005-07-07 06:41:54 51°13.587 2°56.051 303.8 6.7 300 8.9
2005-07-07 06:42:00 51°13.593 2°56.036 305.5 6.7 300 8.9
2005-07-07 06:42:04 51°13.598 2°56.026 306.3 6.7 300 8.9
2005-07-07 06:42:09 51°13.603 2°56.013 306.5 7.1 303 8.8
2005-07-07 06:42:14 51°13.609 2°55.998 307.5 7.1 303 8.7
2005-07-07 06:42:19 51°13.614 2°55.984 307.9 7.2 304 8.7
2005-07-07 06:42:24 51°13.62 2°55.972 307.9 7.2 304 8.7
2005-07-07 06:42:29 51°13.626 2°55.957 308.6 7.4 304 8.6
2005-07-07 06:42:33 51°13.631 2°55.946 309.4 7.5 306 8.6
2005-07-07 06:42:38 51°13.637 2°55.932 309.3 7.6 305 8.5
2005-07-07 06:42:44 51°13.644 2°55.918 309.1 7.6 305 8.5
2005-07-07 06:42:49 51°13.651 2°55.902 309.4 7.7 306 8.5
2005-07-07 06:42:53 51°13.656 2°55.891 309.3 7.7 305 8.5
2005-07-07 06:42:59 51°13.662 2°55.875 309.1 7.7 305 8.4
2005-07-07 06:43:04 51°13.668 2°55.862 309 7.7 305 8.4
2005-07-07 06:43:09 51°13.675 2°55.846 309.1 7.7 305 8.4
2005-07-07 06:43:14 51°13.681 2°55.834 309.7 7.7 305 8.3
2005-07-07 06:43:19 51°13.688 2°55.819 310.6 7.7 305 8.4
2005-07-07 06:43:24 51°13.694 2°55.807 311.2 7.7 305 9.1
2005-07-07 06:43:29 51°13.701 2°55.792 311.6 7.7 305 9.9
2005-07-07 06:43:33 51°13.707 2°55.781 313.1 7.9 309 10.6
2005-07-07 06:43:39 51°13.716 2°55.766 315 7.9 309 10.9
2005-07-07 06:43:44 51°13.723 2°55.754 316.5 7.9 309 11
2005-07-07 06:43:48 51°13.729 2°55.743 317.3 8.1 314 10.6
2005-07-07 06:43:53 51°13.737 2°55.731 318.5 8.1 314 9.6
2005-07-07 06:43:59 51°13.747 2°55.716 320.6 8.1 314 8.7
2005-07-07 06:44:04 51°13.755 2°55.705 323.3 8.1 314 8.6
2005-07-07 06:44:09 51°13.765 2°55.693 326.2 8 321 8.6
2005-07-07 06:44:13 51°13.771 2°55.686 327.9 8 321 8.6
2005-07-07 06:44:19 51°13.782 2°55.674 329.5 8 321 8.6
2005-07-07 06:44:24 51°13.792 2°55.665 331.9 8 327 8.8
2005-07-07 06:44:29 51°13.802 2°55.655 334.5 8 327 9.2
2005-07-07 06:44:33 51°13.81 2°55.648 336.8 8 331 9.3
2005-07-07 06:44:39 51°13.821 2°55.64 338.4 8 333 9.6
2005-07-07 06:44:44 51°13.831 2°55.632 339.6 8 333 9.5
2005-07-07 06:44:49 51°13.842 2°55.624 340.3 8.1 334 9.8
2005-07-07 06:44:53 51°13.851 2°55.618 340.4 8.1 334 9.9
2005-07-07 06:44:59 51°13.862 2°55.609 340.7 8.2 335 9.3
2005-07-07 06:45:04 51°13.872 2°55.601 340.1 8.2 335 9.4
2005-07-07 06:45:09 51°13.882 2°55.593 339.2 8.3 333 9.2
2005-07-07 06:45:13 51°13.892 2°55.586 339.6 8.3 333 9.5
2005-07-07 06:45:19 51°13.904 2°55.577 340.3 8.3 333 9.5
2005-07-07 06:45:24 51°13.914 2°55.57 340.7 8.3 333 9.2
2005-07-07 06:45:29 51°13.926 2°55.562 340.9 8.3 333 9.2
2005-07-07 06:45:34 51°13.935 2°55.555 341.1 8.4 336 9.1
2005-07-07 06:45:39 51°13.947 2°55.547 341.3 8.4 337 9.4
2005-07-07 06:45:44 51°13.957 2°55.539 341.3 8.4 337 9.9
2005-07-07 06:45:49 51°13.968 2°55.532 340.9 8.4 336 9.8
2005-07-07 06:45:53 51°13.977 2°55.526 340.7 8.5 337 10.1
2005-07-07 06:45:59 51°13.99 2°55.517 340.7 8.4 337 10.1
2005-07-07 06:46:04 51°14 2°55.51 341 8.4 337 10.4
2005-07-07 06:46:08 51°14.008 2°55.505 341.1 8.5 337 10
2005-07-07 06:46:13 51°14.02 2°55.497 341.1 8.5 337 9.8
2005-07-07 06:46:19 51°14.033 2°55.488 340.5 8.5 336 9.9
2005-07-07 06:46:24 51°14.043 2°55.481 340.1 8.5 336 9.6
2005-07-07 06:46:28 51°14.052 2°55.474 340 8.8 335 9.5
2005-07-07 06:46:33 51°14.065 2°55.465 340.1 8.8 335 9.6
2005-07-07 06:46:39 51°14.079 2°55.455 340.3 9.2 336 9.6
2005-07-07 06:46:44 51°14.089 2°55.447 340.1 9.4 336 9.4
2005-07-07 06:46:48 51°14.099 2°55.44 340.2 9.5 336 9.2
2005-07-07 06:46:53 51°14.113 2°55.43 340.2 9.6 336 9.4
2005-07-07 06:46:59 51°14.126 2°55.42 339.5 9.9 334 9.5
2005-07-07 06:47:04 51°14.139 2°55.41 338.2 10 333 9.5
2005-07-07 06:47:09 51°14.151 2°55.4 338 10 333 9.5
2005-07-07 06:47:14 51°14.163 2°55.388 336.5 10 333 9.8
2005-07-07 06:47:19 51°14.175 2°55.376 334.1 10.3 327 9.7
2005-07-07 06:47:24 51°14.187 2°55.363 332 10.3 327 9.8
2005-07-07 06:47:29 51°14.199 2°55.349 330.6 10.4 326 9.7
2005-07-07 06:47:34 51°14.21 2°55.335 328.6 10.4 323 9.6
2005-07-07 06:47:39 51°14.222 2°55.319 326.3 10.5 320 9.8
2005-07-07 06:47:44 51°14.232 2°55.305 325 10.5 319 9.7
2005-07-07 06:47:49 51°14.243 2°55.287 322.7 10.5 319 9.7
2005-07-07 06:47:53 51°14.252 2°55.274 320.4 10.5 319 9.8
2005-07-07 06:47:59 51°14.264 2°55.253 319.3 10.5 314 9.7
2005-07-07 06:48:04 51°14.273 2°55.238 317.7 10.5 312 9.9
2005-07-07 06:48:08 51°14.28 2°55.223 316.3 10.5 311 9.9
2005-07-07 06:48:14 51°14.291 2°55.203 315.4 10.3 311 9.6
2005-07-07 06:48:19 51°14.302 2°55.184 315.5 10.3 311 9.7
2005-07-07 06:48:24 51°14.31 2°55.168 315.6 10.3 311 9.4
2005-07-07 06:48:29 51°14.32 2°55.151 315.7 10.5 311 9.5
2005-07-07 06:48:33 51°14.328 2°55.135 316.4 10.5 312 9.6
2005-07-07 06:48:39 51°14.339 2°55.116 316.4 10.5 312 9.3
2005-07-07 06:48:44 51°14.348 2°55.098 315.8 10.5 312 9.4
2005-07-07 06:48:49 51°14.359 2°55.079 315.7 10.7 312 9.5
2005-07-07 06:48:54 51°14.368 2°55.063 315.7 10.7 312 9.5
2005-07-07 06:49:00 51°14.38 2°55.042 316.5 10.7 312 9.6
2005-07-07 06:49:04 51°14.39 2°55.025 316.8 10.7 312 9.7
2005-07-07 06:49:09 51°14.4 2°55.006 316.3 11.3 311 9.7
2005-07-07 06:49:13 51°14.408 2°54.992 315.8 11.2 311 9.7
2005-07-07 06:49:19 51°14.421 2°54.973 318.2 11.4 315 9.6
2005-07-07 06:49:24 51°14.433 2°54.957 322 11.5 318 9.7
2005-07-07 06:49:29 51°14.447 2°54.939 325.2 11.5 318 9.7
2005-07-07 06:49:34 51°14.459 2°54.925 326.7 11.5 318 9.4
2005-07-07 06:49:39 51°14.473 2°54.908 328.3 11.8 325 9.2
2005-07-07 06:49:44 51°14.485 2°54.895 329.3 11.8 325 9.2
2005-07-07 06:49:48 51°14.498 2°54.883 331.3 11.9 327 9.4
2005-07-07 06:49:52 51°14.509 2°54.874 333.7 12.1 330 8.6
2005-07-07 06:49:59 51°14.531 2°54.855 336.8 12.2 332 8.9
2005-07-07 06:50:04 51°14.545 2°54.844 338 12.3 332 9
2005-07-07 06:50:09 51°14.562 2°54.83 338.2 12.3 332 8.6
2005-07-07 06:50:13 51°14.574 2°54.82 338.8 12.2 332 8.9
2005-07-07 06:50:19 51°14.594 2°54.806 339 12.4 334 8.7
2005-07-07 06:50:24 51°14.608 2°54.794 340.2 12.4 333 8.8
2005-07-07 06:50:29 51°14.624 2°54.782 340 12.6 334 8.9
2005-07-07 06:50:34 51°14.638 2°54.77 339.9 12.6 334 9
2005-07-07 06:50:39 51°14.654 2°54.76 339.5 11.9 335 8.3
2005-07-07 06:50:45 51°14.672 2°54.745 339.5 12.1 336 -999
2005-07-07 06:50:49 51°14.684 2°54.736 339.9 12.1 336 8.3
2005-07-07 06:50:53 51°14.698 2°54.726 339.9 12 335 8.5
2005-07-07 06:50:59 51°14.714 2°54.713 339.6 12.2 334 8.4
2005-07-07 06:51:04 51°14.729 2°54.702 338.9 12.2 334 8.3
2005-07-07 06:51:09 51°14.744 2°54.689 339.9 12.1 334 8.5
2005-07-07 06:51:13 51°14.758 2°54.677 339.2 12.4 333 8.4
2005-07-07 06:51:19 51°14.775 2°54.662 338.8 12.5 331 8.6
2005-07-07 06:51:24 51°14.792 2°54.647 338.6 12.5 331 8.6
2005-07-07 06:51:29 51°14.807 2°54.634 338 12.5 331 9.1
2005-07-07 06:51:34 51°14.821 2°54.622 337.9 12.3 331 8.7
2005-07-07 06:51:39 51°14.835 2°54.609 339.2 12.5 331 8.8
2005-07-07 06:51:44 51°14.851 2°54.597 339.6 12.2 332 8.2
2005-07-07 06:51:49 51°14.867 2°54.583 340.9 12.3 333 8.1
2005-07-07 06:51:55 51°14.884 2°54.568 339 12.3 333 7.9
2005-07-07 06:51:59 51°14.898 2°54.556 338.9 12.2 332 7.8
2005-07-07 06:52:04 51°14.911 2°54.545 339.1 12.2 332 8.3
2005-07-07 06:52:08 51°14.924 2°54.535 339 12 333 7.9
2005-07-07 06:52:14 51°14.941 2°54.522 340.6 11.8 335 7.9
2005-07-07 06:52:20 51°14.958 2°54.508 340.8 11.8 335 8
2005-07-07 06:52:24 51°14.97 2°54.498 340.6 12 334 8.2
2005-07-07 06:52:29 51°14.985 2°54.486 339.6 12 331 7.9
2005-07-07 06:52:33 51°14.998 2°54.475 339.8 12 333 8
2005-07-07 06:52:39 51°15.014 2°54.461 339.3 12 331 8
2005-07-07 06:52:44 51°15.029 2°54.449 339.6 12.3 333 7.8
2005-07-07 06:52:49 51°15.045 2°54.434 338.9 12.3 333 7.8
2005-07-07 06:52:54 51°15.06 2°54.421 339.8 12.1 332 7.5
2005-07-07 06:52:59 51°15.075 2°54.409 340.2 12.1 333 7.5
2005-07-07 06:53:04 51°15.088 2°54.397 340.5 12.1 333 7.7
2005-07-07 06:53:09 51°15.102 2°54.384 339.7 12.1 333 7.6
2005-07-07 06:53:13 51°15.116 2°54.372 339.2 12.1 333 7.6
2005-07-07 06:53:19 51°15.133 2°54.358 340 12.4 332 7.9
2005-07-07 06:53:24 51°15.148 2°54.346 339.6 12.4 333 7.9
2005-07-07 06:53:29 51°15.165 2°54.332 339.9 12.4 333 6
2005-07-07 06:53:33 51°15.177 2°54.322 339.8 12.4 333 8
2005-07-07 06:53:39 51°15.194 2°54.307 339.4 12.7 331 8
2005-07-07 06:53:44 51°15.211 2°54.291 339.5 12.7 331 7.9
2005-07-07 06:53:49 51°15.226 2°54.279 338.8 12.5 332 8.3
2005-07-07 06:53:54 51°15.241 2°54.267 339.5 12.5 332 8.3
2005-07-07 06:53:59 51°15.255 2°54.255 340.3 12.4 332 8.1
2005-07-07 06:54:04 51°15.271 2°54.243 340.2 12.4 332 8
2005-07-07 06:54:09 51°15.287 2°54.23 340.4 12.4 332 -999
2005-07-07 06:54:14 51°15.303 2°54.219 340.6 11.9 335 7.3
2005-07-07 06:54:19 51°15.317 2°54.205 341.4 12.2 335 7.9
2005-07-07 06:54:24 51°15.331 2°54.194 339.7 12.2 335 8
2005-07-07 06:54:29 51°15.346 2°54.18 339.9 12.2 335 8.3
2005-07-07 06:54:34 51°15.361 2°54.166 339 12.4 329 8.6
2005-07-07 06:54:39 51°15.377 2°54.152 339 12.2 330 8.7
2005-07-07 06:54:44 51°15.391 2°54.139 338.9 12.2 331 9
2005-07-07 06:54:49 51°15.408 2°54.125 339.3 12.2 331 8.9
2005-07-07 06:54:55 51°15.424 2°54.11 339.6 12.4 331 8.9
2005-07-07 06:54:59 51°15.436 2°54.099 339 12.7 330 9.2
2005-07-07 06:55:04 51°15.45 2°54.087 339 12.6 331 8.9
2005-07-07 06:55:09 51°15.468 2°54.071 338.6 12.2 331 8.7
2005-07-07 06:55:13 51°15.48 2°54.06 339.5 12.6 331 9
2005-07-07 06:55:19 51°15.498 2°54.043 338.6 12.7 330 9.1
2005-07-07 06:55:24 51°15.511 2°54.031 339.2 12.7 330 9.2
2005-07-07 06:55:29 51°15.528 2°54.016 338.1 12.5 329 9
2005-07-07 06:55:34 51°15.542 2°54.004 339.6 12.5 329 9.3
2005-07-07 06:55:39 51°15.559 2°53.989 338.8 12.5 329 9.3
2005-07-07 06:55:44 51°15.572 2°53.976 339.5 12.9 331 9.2
2005-07-07 06:55:49 51°15.59 2°53.961 338.4 12.7 332 9.2
2005-07-07 06:55:53 51°15.601 2°53.949 339.9 12.8 329 9.6
2005-07-07 06:55:59 51°15.62 2°53.934 338.8 12.7 330 9.7
2005-07-07 06:56:04 51°15.633 2°53.921 339.8 12.7 331 9.4
2005-07-07 06:56:09 51°15.649 2°53.908 339.9 12.7 331 9.6
2005-07-07 06:56:13 51°15.662 2°53.895 340.2 12.7 330 9.8
2005-07-07 06:56:19 51°15.68 2°53.881 339.8 12.7 330 9.6
2005-07-07 06:56:24 51°15.694 2°53.867 339.1 12.7 330 9.8
2005-07-07 06:56:29 51°15.711 2°53.852 339.1 12.4 331 10
2005-07-07 06:56:34 51°15.726 2°53.838 338.6 12.4 329 10.1
2005-07-07 06:56:39 51°15.739 2°53.826 339.1 12.6 331 10.2
2005-07-07 06:56:44 51°15.755 2°53.811 339.2 12.7 330 10
2005-07-07 06:56:49 51°15.771 2°53.796 338.3 12.7 329 10.4
2005-07-07 06:56:53 51°15.782 2°53.787 338.4 12.5 330 10
2005-07-07 06:56:59 51°15.8 2°53.769 338.6 12.7 329 10.1
2005-07-07 06:57:04 51°15.815 2°53.755 338.5 12.7 329 10.1
2005-07-07 06:57:09 51°15.83 2°53.742 338.9 12.7 329 9.9
2005-07-07 06:57:14 51°15.847 2°53.726 339.1 12.7 329 9.8
2005-07-07 06:57:18 51°15.859 2°53.716 340.3 12.4 331 10.1
2005-07-07 06:57:24 51°15.876 2°53.7 340.5 12.3 330 10.2
2005-07-07 06:57:29 51°15.892 2°53.687 339.4 12.3 330 10.3
2005-07-07 06:57:34 51°15.905 2°53.675 339.2 12.3 330 9.9
2005-07-07 06:57:39 51°15.921 2°53.66 339.4 12.2 331 10.3
2005-07-07 06:57:44 51°15.935 2°53.648 339.1 12.1 330 10.8
2005-07-07 06:57:49 51°15.95 2°53.634 339 12.1 330 10.5
2005-07-07 06:57:54 51°15.965 2°53.62 340.1 12.1 330 10.6
2005-07-07 06:58:00 51°15.982 2°53.605 339.5 12.4 329 10.5
2005-07-07 06:58:04 51°15.993 2°53.593 339.3 12.5 331 10.8
2005-07-07 06:58:09 51°16.01 2°53.578 338.2 12.5 331 10.8
2005-07-07 06:58:13 51°16.022 2°53.566 339.3 12.7 330 11
2005-07-07 06:58:19 51°16.041 2°53.55 338.2 12.8 331 10.8
2005-07-07 06:58:24 51°16.056 2°53.536 339.6 12.8 331 11
2005-07-07 06:58:29 51°16.072 2°53.524 341 12.8 331 10.5
2005-07-07 06:58:33 51°16.083 2°53.516 342.5 12.8 331 10.9
2005-07-07 06:58:39 51°16.103 2°53.5 343.4 12.8 331 11
2005-07-07 06:58:44 51°16.117 2°53.489 343.6 12.8 331 10.7
2005-07-07 06:58:49 51°16.134 2°53.477 344.5 -999 -999 10.8
2005-07-07 06:58:53 51°16.147 2°53.468 344.7 12.6 336 10.8
2005-07-07 06:58:59 51°16.165 2°53.454 344.9 12.7 335 11.1
2005-07-07 06:59:04 51°16.181 2°53.442 343.7 12.7 335 11.1
2005-07-07 06:59:09 51°16.198 2°53.428 342.5 12.8 333 11
2005-07-07 06:59:13 51°16.211 2°53.417 342.3 12.6 332 10.7
2005-07-07 06:59:19 51°16.23 2°53.401 342.2 12.8 333 10.7
2005-07-07 06:59:24 51°16.244 2°53.39 341.7 12.8 333 10.8
2005-07-07 06:59:29 51°16.261 2°53.376 341.4 12.8 333 11.1
2005-07-07 06:59:34 51°16.277 2°53.362 341 12.8 333 10.8
2005-07-07 06:59:39 51°16.293 2°53.349 342.2 12.8 333 10.9
2005-07-07 06:59:44 51°16.307 2°53.337 341.8 12.8 333 10.7
2005-07-07 06:59:49 51°16.324 2°53.322 341.2 12.8 332 10.8
2005-07-07 06:59:54 51°16.338 2°53.31 341.6 12.9 332 11
2005-07-07 07:00:00 51°16.358 2°53.295 341.2 12.9 332 10.8
2005-07-07 07:00:04 51°16.371 2°53.285 342.1 12.9 332 10.6
2005-07-07 07:00:09 51°16.387 2°53.272 341.3 12.5 333 -999
2005-07-07 07:00:13 51°16.4 2°53.261 341.8 12.5 333 11
2005-07-07 07:00:19 51°16.416 2°53.247 341.9 12.5 333 11
2005-07-07 07:00:24 51°16.431 2°53.233 341.1 12.5 333 11.3
2005-07-07 07:00:29 51°16.446 2°53.222 340.7 12.5 332 10.8
2005-07-07 07:00:33 51°16.461 2°53.212 342.5 12.5 332 10.8
2005-07-07 07:00:39 51°16.479 2°53.197 343 12.4 334 11.1
2005-07-07 07:00:44 51°16.493 2°53.186 342.2 12.4 332 10.8
2005-07-07 07:00:49 51°16.51 2°53.172 341.5 12.4 333 11.1
2005-07-07 07:00:54 51°16.523 2°53.159 340.7 12.5 331 11.1
2005-07-07 07:00:59 51°16.54 2°53.144 339.6 12.5 331 11.3
2005-07-07 07:01:04 51°16.554 2°53.131 339.3 12.6 330 10.8
2005-07-07 07:01:09 51°16.571 2°53.116 339.6 12.7 331 11.1
2005-07-07 07:01:14 51°16.584 2°53.103 340.2 12.7 331 11.2
2005-07-07 07:01:19 51°16.6 2°53.091 339.5 12.7 329 10.7
2005-07-07 07:01:24 51°16.616 2°53.075 340 12.7 329 11
2005-07-07 07:01:29 51°16.632 2°53.061 339.6 12.7 329 11
2005-07-07 07:01:34 51°16.645 2°53.049 339.4 12.2 331 10.8
2005-07-07 07:01:39 51°16.662 2°53.035 339.8 12.2 331 10.3
2005-07-07 07:01:44 51°16.677 2°53.021 339.2 12.2 331 10.1
2005-07-07 07:01:49 51°16.692 2°53.009 340 12.2 331 10.4
2005-07-07 07:01:54 51°16.705 2°52.996 340.1 12.2 331 10.6
2005-07-07 07:02:00 51°16.723 2°52.981 339.6 12.2 331 10.4
2005-07-07 07:02:04 51°16.734 2°52.97 339.7 12.2 331 10.1
2005-07-07 07:02:09 51°16.75 2°52.957 339.8 12.2 330 9.6
2005-07-07 07:02:13 51°16.763 2°52.945 339.6 12.5 331 9.7
2005-07-07 07:02:19 51°16.782 2°52.929 339.5 12.5 331 9.5
2005-07-07 07:02:24 51°16.795 2°52.917 339.3 12.4 331 9.2
2005-07-07 07:02:29 51°16.812 2°52.902 339.5 12.4 331 8.7
2005-07-07 07:02:33 51°16.824 2°52.891 338.9 12.6 331 8.5
2005-07-07 07:02:39 51°16.842 2°52.875 338.9 12.6 331 8.6
2005-07-07 07:02:44 51°16.855 2°52.863 339 12.6 331 8.3
2005-07-07 07:02:49 51°16.87 2°52.85 338.9 12.3 330 8.3
2005-07-07 07:02:54 51°16.887 2°52.835 339.5 12.4 331 8.3
2005-07-07 07:02:59 51°16.902 2°52.822 339.2 12.4 330 8.3
2005-07-07 07:03:04 51°16.916 2°52.81 339 12.4 331 8.3
2005-07-07 07:03:09 51°16.931 2°52.795 339.3 12.4 331 8.4
2005-07-07 07:03:14 51°16.947 2°52.781 339 12.4 331 8.5
2005-07-07 07:03:19 51°16.962 2°52.767 339.2 12.4 331 8.7
2005-07-07 07:03:24 51°16.975 2°52.755 338.7 12.6 330 8.6
2005-07-07 07:03:29 51°16.993 2°52.74 338.9 12.6 330 8.9
2005-07-07 07:03:33 51°17.005 2°52.729 339.4 12.6 332 9
2005-07-07 07:03:39 51°17.023 2°52.713 338.9 12.6 330 9.2
2005-07-07 07:03:44 51°17.037 2°52.7 339 12.6 330 9
2005-07-07 07:03:49 51°17.054 2°52.685 339 12.6 330 9.3
2005-07-07 07:03:54 51°17.069 2°52.671 338.8 12.6 330 9.1
2005-07-07 07:03:59 51°17.085 2°52.657 339 12.8 331 9
2005-07-07 07:04:04 51°17.098 2°52.644 338.8 12.8 331 8.7
2005-07-07 07:04:09 51°17.115 2°52.631 339.2 12.6 331 8.7
2005-07-07 07:04:13 51°17.127 2°52.62 339.1 12.6 331 8.7
2005-07-07 07:04:19 51°17.145 2°52.604 339.5 12.4 331 8.6
2005-07-07 07:04:24 51°17.158 2°52.593 339.5 12.4 331 8.8
2005-07-07 07:04:29 51°17.175 2°52.58 339.5 12.4 331 -999
2005-07-07 07:04:34 51°17.189 2°52.568 340.9 11.9 336 -999
2005-07-07 07:04:40 51°17.207 2°52.554 341.1 11.9 336 9
2005-07-07 07:04:45 51°17.22 2°52.543 340.3 11.6 334 -999
2005-07-07 07:04:49 51°17.233 2°52.532 340.9 11.9 333 8.4
2005-07-07 07:04:53 51°17.245 2°52.522 339.6 11.9 333 9
2005-07-07 07:04:59 51°17.261 2°52.507 339.3 11.9 333 9.1
2005-07-07 07:05:04 51°17.276 2°52.494 338.9 12.2 330 9.4
2005-07-07 07:05:09 51°17.292 2°52.479 338.8 12.2 330 9.6
2005-07-07 07:05:14 51°17.305 2°52.466 338.6 12.3 330 9.8
2005-07-07 07:05:19 51°17.322 2°52.451 338.3 12.6 330 9.8
2005-07-07 07:05:24 51°17.335 2°52.44 338.2 12.7 330 9.6
2005-07-07 07:05:29 51°17.352 2°52.424 339.1 12.7 330 9.7
2005-07-07 07:05:33 51°17.364 2°52.415 340 12.4 331 9.7
2005-07-07 07:05:39 51°17.382 2°52.399 339.8 12.4 331 9.5
2005-07-07 07:05:44 51°17.396 2°52.387 340.2 12.4 331 9.3
2005-07-07 07:05:49 51°17.413 2°52.372 339.7 12.4 331 9.4
2005-07-07 07:05:54 51°17.426 2°52.359 339.6 12.6 332 9.2
2005-07-07 07:05:59 51°17.443 2°52.343 339.6 12.6 332 9.5
2005-07-07 07:06:04 51°17.457 2°52.331 339.4 12.4 330 9.5
2005-07-07 07:06:09 51°17.473 2°52.316 339.2 12.4 330 9.8
2005-07-07 07:06:14 51°17.487 2°52.302 339.3 12.7 331 9.6
2005-07-07 07:06:19 51°17.503 2°52.287 338.6 12.7 329 9.8
2005-07-07 07:06:24 51°17.517 2°52.274 338.3 12.7 329 9.7
2005-07-07 07:06:29 51°17.532 2°52.26 338.5 12.7 329 9.7
2005-07-07 07:06:34 51°17.547 2°52.246 338.9 12.6 329 9.8
2005-07-07 07:06:39 51°17.564 2°52.231 339.1 12.7 331 9.7
2005-07-07 07:06:44 51°17.578 2°52.219 339 12.7 330 9.6
2005-07-07 07:06:49 51°17.595 2°52.204 339 12.7 330 9.5
2005-07-07 07:06:53 51°17.608 2°52.195 341.1 12.5 335 9.7
2005-07-07 07:06:59 51°17.627 2°52.183 344.1 12.5 338 9.5
2005-07-07 07:07:04 51°17.643 2°52.175 347.3 12.5 338 9.4
2005-07-07 07:07:09 51°17.66 2°52.167 349.9 12.5 338 9.7
2005-07-07 07:07:13 51°17.673 2°52.162 352.3 12.1 342 9.4
2005-07-07 07:07:19 51°17.693 2°52.152 353 12.3 343 9
2005-07-07 07:07:24 51°17.707 2°52.147 351.9 12.3 343 9.3
2005-07-07 07:07:29 51°17.726 2°52.138 353 12.3 343 9.2
2005-07-07 07:07:34 51°17.742 2°52.135 354 12.4 344 9.1
2005-07-07 07:07:39 51°17.759 2°52.129 357 12.1 348 9.6
2005-07-07 07:07:44 51°17.774 2°52.128 358.8 12.1 348 9.4
2005-07-07 07:07:49 51°17.792 2°52.123 1 12.1 348 9.5
2005-07-07 07:07:53 51°17.805 2°52.121 0.5 12.1 356 9.3
2005-07-07 07:07:59 51°17.825 2°52.118 2.1 12.1 353 9.4
2005-07-07 07:08:04 51°17.842 2°52.116 3.1 12.1 353 9.4
2005-07-07 07:08:09 51°17.859 2°52.117 4.2 12.2 357 9.6
2005-07-07 07:08:13 51°17.872 2°52.116 6.8 11.9 1 9.4
2005-07-07 07:08:19 51°17.892 2°52.119 7.2 12.2 5 9.5
2005-07-07 07:08:24 51°17.909 2°52.116 10.9 12.2 5 9.6
2005-07-07 07:08:29 51°17.925 2°52.12 9 12.2 5 9.8
2005-07-07 07:08:34 51°17.94 2°52.119 10.9 12.2 5 9.8
2005-07-07 07:08:39 51°17.96 2°52.123 10.1 12.1 7 9.5
2005-07-07 07:08:44 51°17.975 2°52.123 11.2 12.1 7 9.2
2005-07-07 07:08:49 51°17.993 2°52.13 11.1 12.1 7 9
2005-07-07 07:08:54 51°18.011 2°52.125 14.8 12.1 7 9.3
2005-07-07 07:08:59 51°18.026 2°52.13 10 12.4 356 9.4
2005-07-07 07:09:04 51°18.041 2°52.129 12 12.2 4 9.8
2005-07-07 07:09:09 51°18.06 2°52.133 9 12.2 4 9.7
2005-07-07 07:09:14 51°18.075 2°52.132 13.7 12.2 4 9.9
2005-07-07 07:09:20 51°18.096 2°52.135 8.4 12.2 4 10.1
2005-07-07 07:09:24 51°18.109 2°52.136 9.5 12 7 9.8
2005-07-07 07:09:30 51°18.129 2°52.135 10.8 12 7 9.9
2005-07-07 07:09:34 51°18.143 2°52.138 10 11.6 4 9.7
2005-07-07 07:09:39 51°18.159 2°52.136 10.6 11.9 2 9.7
2005-07-07 07:09:44 51°18.176 2°52.137 8.2 12 1 9.9
2005-07-07 07:09:49 51°18.193 2°52.139 10.1 11.9 5 10
2005-07-07 07:09:53 51°18.207 2°52.139 10.5 11.9 5 10.1
2005-07-07 07:09:59 51°18.227 2°52.142 10.4 12.1 5 10.2
2005-07-07 07:10:04 51°18.242 2°52.141 10.8 12.1 5 10.2
2005-07-07 07:10:09 51°18.261 2°52.143 10.1 12.1 5 10.3
2005-07-07 07:10:13 51°18.275 2°52.143 10.1 12.1 2 10.4
2005-07-07 07:10:19 51°18.295 2°52.144 8.6 12.2 -999 10.4
2005-07-07 07:10:24 51°18.311 2°52.144 9.4 12.2 -999 10.6
2005-07-07 07:10:29 51°18.329 2°52.145 10 12.2 -999 10.7
2005-07-07 07:10:34 51°18.345 2°52.146 8.4 12.3 1 10.6
2005-07-07 07:10:39 51°18.363 2°52.148 12.1 12.5 6 10.7
2005-07-07 07:10:44 51°18.379 2°52.147 10.4 12.5 6 10.5
2005-07-07 07:10:49 51°18.397 2°52.152 9.2 12.5 6 10.7
2005-07-07 07:10:53 51°18.411 2°52.149 11.7 12.4 358 10.9
2005-07-07 07:10:59 51°18.432 2°52.153 9.2 12.3 6 11
2005-07-07 07:11:04 51°18.448 2°52.153 10.8 12.3 6 11
2005-07-07 07:11:09 51°18.466 2°52.154 9.7 12.5 1 11
2005-07-07 07:11:14 51°18.481 2°52.154 9.6 12.2 2 10.8
2005-07-07 07:11:19 51°18.5 2°52.155 10.3 12.2 2 10.9
2005-07-07 07:11:24 51°18.515 2°52.155 9 12.2 2 10.8
2005-07-07 07:11:29 51°18.534 2°52.158 10.5 12.4 5 10.9
2005-07-07 07:11:34 51°18.551 2°52.157 10.9 12.4 5 10.9
2005-07-07 07:11:39 51°18.568 2°52.159 10.1 12.4 5 11.1
2005-07-07 07:11:44 51°18.583 2°52.159 10.6 12.3 2 11.4
2005-07-07 07:11:49 51°18.6 2°52.16 10.1 12.3 2 11.6
2005-07-07 07:11:53 51°18.616 2°52.16 9.3 12.4 359 11.2
2005-07-07 07:11:59 51°18.636 2°52.161 10.2 12.3 -999 11.4
2005-07-07 07:12:04 51°18.651 2°52.162 9.3 12.3 -999 11.1
2005-07-07 07:12:08 51°18.665 2°52.164 10.5 12.3 4 11.4
2005-07-07 07:12:14 51°18.686 2°52.162 9.1 12.3 4 11.6
2005-07-07 07:12:19 51°18.704 2°52.164 9.4 12.4 5 11.8
2005-07-07 07:12:24 51°18.72 2°52.162 9.5 12.4 358 11.8
2005-07-07 07:12:29 51°18.739 2°52.164 9.2 12.4 358 12
2005-07-07 07:12:34 51°18.756 2°52.164 9.1 12.4 358 12
2005-07-07 07:12:39 51°18.774 2°52.166 9.5 12.5 4 12
2005-07-07 07:12:44 51°18.789 2°52.165 9.8 12.5 4 12
2005-07-07 07:12:49 51°18.808 2°52.167 9.4 12.5 4 12.2
2005-07-07 07:12:54 51°18.825 2°52.166 10.1 12.5 4 12.2
2005-07-07 07:12:59 51°18.842 2°52.168 9.4 12.5 359 12.5
2005-07-07 07:13:04 51°18.858 2°52.167 10.3 12.5 359 12.6
2005-07-07 07:13:09 51°18.877 2°52.168 9.4 12.5 359 12.5
2005-07-07 07:13:14 51°18.894 2°52.169 9.4 12.5 359 12.5
2005-07-07 07:13:20 51°18.913 2°52.17 9.2 12.3 2 12.4
2005-07-07 07:13:24 51°18.927 2°52.169 9.7 12.3 2 12.1
2005-07-07 07:13:28 51°18.941 2°52.169 8.7 12.3 2 12.3
2005-07-07 07:13:33 51°18.959 2°52.169 10 12.3 2 12.1
2005-07-07 07:13:39 51°18.98 2°52.17 8.8 12.4 -999 12.3
2005-07-07 07:13:44 51°18.996 2°52.17 10 12.4 1 12.4
2005-07-07 07:13:49 51°19.015 2°52.17 9.9 12.5 359 12.9
2005-07-07 07:13:53 51°19.027 2°52.169 9.2 12.4 1 13.1
2005-07-07 07:13:59 51°19.049 2°52.171 10.1 12.5 -999 13.3
2005-07-07 07:14:04 51°19.064 2°52.17 9.7 12.6 3 13.3
2005-07-07 07:14:09 51°19.083 2°52.173 9.3 12.2 359 13.2
2005-07-07 07:14:14 51°19.099 2°52.172 10 12.2 359 12.8
2005-07-07 07:14:19 51°19.115 2°52.172 9.3 12.4 1 12.6
2005-07-07 07:14:24 51°19.134 2°52.172 8.5 12.4 1 13
2005-07-07 07:14:29 51°19.149 2°52.171 8.1 12.2 358 13.4
2005-07-07 07:14:33 51°19.165 2°52.172 8.5 12.2 358 14
2005-07-07 07:14:39 51°19.185 2°52.171 9.3 12.2 358 14.5
2005-07-07 07:14:43 51°19.199 2°52.171 8.7 12.2 359 14.5
2005-07-07 07:14:49 51°19.219 2°52.17 8.8 12.2 359 14.7
2005-07-07 07:14:53 51°19.232 2°52.17 8.2 12.2 359 14.6
2005-07-07 07:14:59 51°19.253 2°52.17 8.9 12.2 359 14.4
2005-07-07 07:15:04 51°19.268 2°52.171 9.3 12.2 359 14.4
2005-07-07 07:15:09 51°19.286 2°52.17 9.9 12.2 359 14.6
2005-07-07 07:15:13 51°19.3 2°52.17 9.6 12.3 1 14.7
2005-07-07 07:15:19 51°19.318 2°52.171 8.2 12.2 3 14.3
2005-07-07 07:15:24 51°19.336 2°52.172 9.6 12.3 2 13.9
2005-07-07 07:15:29 51°19.354 2°52.173 9.9 12.3 2 13.8
2005-07-07 07:15:33 51°19.367 2°52.172 9.6 11.9 359 14
2005-07-07 07:15:39 51°19.387 2°52.173 9.6 12 -999 14.4
2005-07-07 07:15:44 51°19.402 2°52.173 9.8 12 -999 14.4
2005-07-07 07:15:49 51°19.421 2°52.172 10.1 12.2 -999 14.7
2005-07-07 07:15:54 51°19.436 2°52.171 9.4 12.1 -999 14.8
2005-07-07 07:15:59 51°19.452 2°52.172 9.4 12.2 1 14.9
2005-07-07 07:16:04 51°19.469 2°52.171 9.9 12.3 358 14.7
2005-07-07 07:16:09 51°19.488 2°52.171 9.3 12.3 358 14.7
2005-07-07 07:16:13 51°19.502 2°52.172 9.5 12.2 -999 14.7
2005-07-07 07:16:19 51°19.522 2°52.172 8.8 12.2 -999 14.8
2005-07-07 07:16:24 51°19.537 2°52.171 10.3 12.2 -999 14.7
2005-07-07 07:16:29 51°19.556 2°52.17 9.3 12.2 -999 15
2005-07-07 07:16:34 51°19.573 2°52.17 8.2 12.2 -999 15.2
2005-07-07 07:16:39 51°19.588 2°52.17 9.3 12.3 -999 15.1
2005-07-07 07:16:44 51°19.607 2°52.171 8.7 12.3 359 15
2005-07-07 07:16:48 51°19.619 2°52.17 10.3 12.4 -999 14.9
2005-07-07 07:16:53 51°19.636 2°52.17 9.7 12.3 359 15
2005-07-07 07:16:59 51°19.658 2°52.169 8.7 12.3 359 15.3
2005-07-07 07:17:04 51°19.676 2°52.169 9.4 12.4 1 15.2
2005-07-07 07:17:09 51°19.691 2°52.17 8.8 12.4 359 15.1
2005-07-07 07:17:14 51°19.71 2°52.169 9.2 12.4 359 15.2
2005-07-07 07:17:19 51°19.727 2°52.17 8.9 12.4 359 14.9
2005-07-07 07:17:24 51°19.743 2°52.168 10 12.4 359 14.6
2005-07-07 07:17:29 51°19.761 2°52.167 7.9 12.4 359 14.6
2005-07-07 07:17:34 51°19.776 2°52.166 7.9 12.4 359 14.8
2005-07-07 07:17:40 51°19.797 2°52.167 8.7 -999 -999 15.2
2005-07-07 07:17:44 51°19.812 2°52.166 9.4 -999 -999 15.5
2005-07-07 07:17:49 51°19.829 2°52.166 9.4 12.4 1 15.8
2005-07-07 07:17:54 51°19.844 2°52.167 10.3 12.4 1 15.8
2005-07-07 07:17:59 51°19.863 2°52.168 10.4 12.5 359 15.6
2005-07-07 07:18:04 51°19.878 2°52.169 11.4 12.3 2 15.4
2005-07-07 07:18:08 51°19.892 2°52.171 11.9 12.3 2 16
2005-07-07 07:18:14 51°19.914 2°52.172 12.3 12.3 2 15.5
2005-07-07 07:18:19 51°19.929 2°52.174 12.3 12.1 5 15.3
2005-07-07 07:18:24 51°19.945 2°52.175 11.9 12.2 -999 15.2
2005-07-07 07:18:29 51°19.964 2°52.175 11.8 12.2 -999 15.4
2005-07-07 07:18:33 51°19.978 2°52.175 11.2 12.2 1 15.6
2005-07-07 07:18:40 51°20 2°52.176 11.8 12.5 4 15.7
2005-07-07 07:18:44 51°20.014 2°52.177 11.2 12.5 4 15.5
2005-07-07 07:18:49 51°20.033 2°52.178 10.6 12.5 4 15.6
2005-07-07 07:18:54 51°20.048 2°52.178 11.6 12.4 3 15.7
2005-07-07 07:18:59 51°20.066 2°52.179 11.3 12.4 3 15.5
2005-07-07 07:19:04 51°20.085 2°52.181 11.1 12.4 2 15.1
2005-07-07 07:19:09 51°20.101 2°52.182 11.4 12.4 2 15.3
2005-07-07 07:19:14 51°20.118 2°52.182 12.3 12.1 3 15
2005-07-07 07:19:19 51°20.135 2°52.184 11.6 12.2 2 14.6
2005-07-07 07:19:24 51°20.15 2°52.184 12.3 12.2 2 14.9
2005-07-07 07:19:29 51°20.169 2°52.187 12 12.2 4 14.6
2005-07-07 07:19:34 51°20.184 2°52.186 12.3 12.2 4 13.9
2005-07-07 07:19:40 51°20.205 2°52.188 10.5 12.2 4 14.3
2005-07-07 07:19:44 51°20.218 2°52.188 11.5 12.3 359 14.1
2005-07-07 07:19:49 51°20.238 2°52.187 11.3 12.3 359 14.2
2005-07-07 07:19:53 51°20.251 2°52.186 8.3 12.3 359 13.9
2005-07-07 07:19:59 51°20.272 2°52.182 7.2 12.4 355 14.1
2005-07-07 07:20:04 51°20.287 2°52.181 5.7 12.3 358 14.2
2005-07-07 07:20:09 51°20.306 2°52.178 5.2 12.4 355 13.8
2005-07-07 07:20:14 51°20.323 2°52.175 5.1 12.2 353 13.5
2005-07-07 07:20:19 51°20.34 2°52.172 4.1 12.4 354 13.6
2005-07-07 07:20:24 51°20.355 2°52.17 4.3 12.4 354 13.4
2005-07-07 07:20:29 51°20.373 2°52.167 4.3 12.4 354 13.7
2005-07-07 07:20:33 51°20.388 2°52.164 3.4 12.4 354 14.1
2005-07-07 07:20:39 51°20.408 2°52.16 3.1 12.3 354 13.9
2005-07-07 07:20:44 51°20.423 2°52.158 4.3 12.4 356 13.8
2005-07-07 07:20:49 51°20.442 2°52.157 4.7 12.4 356 13.4
2005-07-07 07:20:54 51°20.457 2°52.157 8.2 12 -999 13.2
2005-07-07 07:20:59 51°20.475 2°52.158 9.8 12 -999 13.3
2005-07-07 07:21:04 51°20.49 2°52.159 10 12.2 359 13.3
2005-07-07 07:21:09 51°20.509 2°52.16 11.8 12.2 359 13.6
2005-07-07 07:21:14 51°20.526 2°52.162 12.4 12.3 4 13.1
2005-07-07 07:21:19 51°20.54 2°52.164 13.6 12.1 3 13.3
2005-07-07 07:21:24 51°20.558 2°52.167 15 12.1 3 13.7
2005-07-07 07:21:29 51°20.577 2°52.17 15.8 12.1 3 13.7
2005-07-07 07:21:34 51°20.592 2°52.173 15.9 12.2 7 12.7
2005-07-07 07:21:39 51°20.61 2°52.178 16.3 12.1 4 13.2
2005-07-07 07:21:44 51°20.625 2°52.18 17.2 12.1 4 13.5
2005-07-07 07:21:49 51°20.644 2°52.183 17.2 12.1 4 13.5
2005-07-07 07:21:53 51°20.657 2°52.186 16.1 12.4 5 13.5
2005-07-07 07:21:59 51°20.678 2°52.19 16.9 12.3 7 13.4
2005-07-07 07:22:04 51°20.693 2°52.192 16.8 12.3 7 13.6
2005-07-07 07:22:09 51°20.711 2°52.197 16.1 12.3 7 13.4
2005-07-07 07:22:14 51°20.728 2°52.201 18 12.3 7 13.1
2005-07-07 07:22:19 51°20.745 2°52.205 16.3 12.2 6 13.1
2005-07-07 07:22:24 51°20.76 2°52.206 18.5 12 7 13.1
2005-07-07 07:22:29 51°20.778 2°52.207 15.6 12 7 13.2
2005-07-07 07:22:34 51°20.793 2°52.203 12.5 12.1 356 13.2
2005-07-07 07:22:40 51°20.812 2°52.197 6 12.1 356 13.1
2005-07-07 07:22:44 51°20.826 2°52.191 1.3 12.3 347 13.4
2005-07-07 07:22:49 51°20.844 2°52.184 359.1 12.3 347 13.7
2005-07-07 07:22:54 51°20.858 2°52.177 357.5 12.2 345 13.4
2005-07-07 07:22:59 51°20.876 2°52.165 356.2 12.2 339 13.6
2005-07-07 07:23:04 51°20.89 2°52.154 350.2 12.4 332 13.9
2005-07-07 07:23:09 51°20.907 2°52.139 346.4 12.4 332 14.1
2005-07-07 07:23:14 51°20.92 2°52.125 342.4 12.6 329 14.4
2005-07-07 07:23:19 51°20.937 2°52.109 341.1 12.6 329 14.7
2005-07-07 07:23:24 51°20.95 2°52.093 338.5 13 324 15
2005-07-07 07:23:29 51°20.966 2°52.075 335.7 13 324 14.9
2005-07-07 07:23:34 51°20.98 2°52.056 334.9 12.9 323 14.7
2005-07-07 07:23:39 51°20.992 2°52.04 332.9 12.7 321 14.8
2005-07-07 07:23:44 51°21.005 2°52.021 331.4 12.8 319 15.5
2005-07-07 07:23:49 51°21.02 2°52 330.4 12.8 319 15.3
2005-07-07 07:23:53 51°21.029 2°51.986 329.2 13 317 15.9
2005-07-07 07:23:59 51°21.046 2°51.96 327.8 13.1 316 15.8
2005-07-07 07:24:04 51°21.058 2°51.941 327.3 13.1 316 16.1
2005-07-07 07:24:09 51°21.072 2°51.918 326.5 13.1 316 16.2
2005-07-07 07:24:13 51°21.082 2°51.902 326.4 13.2 316 -999
2005-07-07 07:24:19 51°21.097 2°51.878 326.6 12.7 315 17
2005-07-07 07:24:24 51°21.108 2°51.859 326.5 13.1 313 17.1
2005-07-07 07:24:29 51°21.122 2°51.839 325.7 13.1 313 17
2005-07-07 07:24:34 51°21.135 2°51.817 326.2 13.1 313 17.4
2005-07-07 07:24:39 51°21.148 2°51.797 326.4 12.8 316 17.4
2005-07-07 07:24:44 51°21.159 2°51.778 327.1 12.8 316 18
2005-07-07 07:24:49 51°21.174 2°51.758 327.3 12.8 316 18.2
2005-07-07 07:24:53 51°21.184 2°51.742 329 12.8 318 18.1
2005-07-07 07:24:59 51°21.201 2°51.719 329.5 12.9 317 18.6
2005-07-07 07:25:04 51°21.212 2°51.702 329.4 13 319 18.7
2005-07-07 07:25:09 51°21.228 2°51.681 329.6 13 319 18.9
2005-07-07 07:25:13 51°21.239 2°51.667 331 13 320 19.2
2005-07-07 07:25:19 51°21.256 2°51.646 333.1 13 323 19.7
2005-07-07 07:25:24 51°21.269 2°51.631 334.5 13 323 19.9
2005-07-07 07:25:29 51°21.285 2°51.612 335 13 323 20.4
2005-07-07 07:25:34 51°21.3 2°51.596 335.6 13 323 20.4
2005-07-07 07:25:39 51°21.315 2°51.58 336.2 12.8 324 20.7
2005-07-07 07:25:44 51°21.328 2°51.566 337.1 12.8 326 20.7
2005-07-07 07:25:49 51°21.344 2°51.549 337.3 12.8 326 21.2
2005-07-07 07:25:54 51°21.358 2°51.536 338.2 12.8 327 21.2
2005-07-07 07:26:00 51°21.377 2°51.52 341.1 12.9 330 21.5
2005-07-07 07:26:04 51°21.392 2°51.509 344 12.9 334 21.8
2005-07-07 07:26:09 51°21.408 2°51.498 346.1 12.9 335 21.9
2005-07-07 07:26:13 51°21.421 2°51.49 347.7 12.9 335 22.1
2005-07-07 07:26:20 51°21.443 2°51.475 349.5 12.9 336 22.1
2005-07-07 07:26:24 51°21.456 2°51.467 349.1 12.9 336 22.5
2005-07-07 07:26:29 51°21.474 2°51.455 349.7 12.8 338 22.5
2005-07-07 07:26:33 51°21.486 2°51.45 350 12.8 338 -999
2005-07-07 07:26:40 51°21.508 2°51.436 350.7 12.7 342 22.5
2005-07-07 07:26:44 51°21.521 2°51.428 350.7 12.7 342 22.5
2005-07-07 07:26:49 51°21.54 2°51.42 351.9 12.5 343 22.5
2005-07-07 07:26:53 51°21.553 2°51.414 355.8 12.5 343 23.1
2005-07-07 07:27:00 51°21.575 2°51.407 357.5 12.5 343 23.1
2005-07-07 07:27:04 51°21.59 2°51.403 359.4 12.5 343 23.2
2005-07-07 07:27:09 51°21.607 2°51.398 0.9 12.4 350 23.2
2005-07-07 07:27:14 51°21.623 2°51.395 1.8 12.4 350 23.3
2005-07-07 07:27:19 51°21.642 2°51.391 3 12.4 352 23.3
2005-07-07 07:27:24 51°21.657 2°51.388 3.6 12.4 354 23.4
2005-07-07 07:27:29 51°21.674 2°51.387 4.6 12.4 354 23.3
2005-07-07 07:27:33 51°21.69 2°51.386 8.2 12.4 354 23.4
2005-07-07 07:27:40 51°21.712 2°51.385 8.5 12.4 354 23.4
2005-07-07 07:27:44 51°21.726 2°51.385 9.5 12.4 1 23.6
2005-07-07 07:27:49 51°21.745 2°51.388 11.2 12.4 1 23.2
2005-07-07 07:27:54 51°21.76 2°51.388 13.6 12.3 5 23.3
2005-07-07 07:27:59 51°21.779 2°51.392 14.3 12.3 6 23.4
2005-07-07 07:28:04 51°21.796 2°51.395 15.2 12.3 6 23.3
2005-07-07 07:28:09 51°21.813 2°51.398 16.5 12.3 6 23.4
2005-07-07 07:28:14 51°21.828 2°51.401 16.6 12.3 6 23.1
2005-07-07 07:28:19 51°21.847 2°51.404 15.5 12.5 6 23
2005-07-07 07:28:24 51°21.864 2°51.406 16.7 12.5 6 23
2005-07-07 07:28:29 51°21.88 2°51.411 16.6 12.5 6 23.3
2005-07-07 07:28:34 51°21.897 2°51.417 18.1 12.2 10 23.2
2005-07-07 07:28:39 51°21.913 2°51.425 22.6 12.1 18 23.2
2005-07-07 07:28:44 51°21.927 2°51.435 23.9 12.1 18 22.7
2005-07-07 07:28:49 51°21.945 2°51.443 29.8 12.1 18 22.7
2005-07-07 07:28:53 51°21.956 2°51.454 28.5 12 21 22.5
2005-07-07 07:28:59 51°21.975 2°51.464 32.7 11.9 29 23
2005-07-07 07:29:04 51°21.989 2°51.48 30.9 11.9 28 22.9
2005-07-07 07:29:09 51°22.005 2°51.488 32.7 11.9 28 22.7
2005-07-07 07:29:14 51°22.018 2°51.5 32.3 11.9 28 23.1
2005-07-07 07:29:19 51°22.036 2°51.511 33.9 12.2 23 23.3
2005-07-07 07:29:24 51°22.05 2°51.522 31.7 12.2 23 23.2
2005-07-07 07:29:29 51°22.065 2°51.531 31.1 12.2 21 23.3
2005-07-07 07:29:34 51°22.08 2°51.544 32.3 12 24 23.3
2005-07-07 07:29:39 51°22.099 2°51.551 31.9 12.4 14 23.2
2005-07-07 07:29:44 51°22.112 2°51.563 29.3 12.4 14 23.2
2005-07-07 07:29:49 51°22.129 2°51.571 29.4 12.4 14 23.2
2005-07-07 07:29:53 51°22.141 2°51.582 29.7 11.8 21 23.1
2005-07-07 07:29:59 51°22.161 2°51.588 30.4 12.4 14 23.1
2005-07-07 07:30:04 51°22.174 2°51.601 27.4 12.4 14 22.9
2005-07-07 07:30:09 51°22.191 2°51.612 30.4 12.4 14 22.7
2005-07-07 07:30:14 51°22.205 2°51.619 30.8 12 23 22.8
2005-07-07 07:30:19 51°22.221 2°51.633 29.4 12 23 22.6
2005-07-07 07:30:24 51°22.236 2°51.638 32.3 12.1 21 22.7
2005-07-07 07:30:29 51°22.252 2°51.653 28.5 11.9 19 22.8
2005-07-07 07:30:34 51°22.267 2°51.659 31.6 12 28 23
2005-07-07 07:30:39 51°22.283 2°51.673 30.4 12.1 17 23
2005-07-07 07:30:44 51°22.298 2°51.681 32 12.2 27 22.8
2005-07-07 07:30:49 51°22.315 2°51.694 30.4 12.2 25 23
2005-07-07 07:30:54 51°22.331 2°51.702 30.4 12.3 24 22.8
2005-07-07 07:30:59 51°22.347 2°51.713 29.5 12.3 24 22.8
2005-07-07 07:31:04 51°22.36 2°51.723 29.4 12.3 20 22.6
2005-07-07 07:31:08 51°22.373 2°51.729 30.4 12.1 19 22.8
2005-07-07 07:31:14 51°22.391 2°51.744 29.7 11.8 22 22.4
2005-07-07 07:31:19 51°22.41 2°51.749 30 12.5 13 22.4
2005-07-07 07:31:24 51°22.424 2°51.764 26.2 12.5 13 22.2
2005-07-07 07:31:29 51°22.441 2°51.771 31.2 12.5 13 22.3
2005-07-07 07:31:33 51°22.453 2°51.78 29.9 12.1 20 22
2005-07-07 07:31:39 51°22.472 2°51.792 29.9 12.1 23 22.1
2005-07-07 07:31:44 51°22.488 2°51.802 29.1 12.4 19 22.2
2005-07-07 07:31:48 51°22.498 2°51.81 29.6 11.9 26 22.2
2005-07-07 07:31:54 51°22.517 2°51.821 29.7 12.1 21 22.3
2005-07-07 07:32:00 51°22.536 2°51.832 29.1 12.1 21 22.4
2005-07-07 07:32:04 51°22.548 2°51.843 29 12.1 20 22.2
2005-07-07 07:32:09 51°22.565 2°51.848 29.1 12.1 20 22.4
2005-07-07 07:32:13 51°22.578 2°51.859 27.2 12 17 22
2005-07-07 07:32:20 51°22.598 2°51.873 29 11.9 20 22.1
2005-07-07 07:32:24 51°22.613 2°51.88 30.9 11.9 20 22.1
2005-07-07 07:32:29 51°22.628 2°51.89 26.8 11.9 20 22
2005-07-07 07:32:33 51°22.64 2°51.899 30.7 12 28 22.2
2005-07-07 07:32:39 51°22.659 2°51.911 29.7 12.3 15 22.1
2005-07-07 07:32:44 51°22.675 2°51.918 30 12.3 15 22.4
2005-07-07 07:32:49 51°22.69 2°51.932 28.7 12.3 15 22.5
2005-07-07 07:32:54 51°22.705 2°51.938 30.2 12.3 15 22.3
2005-07-07 07:32:59 51°22.721 2°51.951 26.9 12.3 15 22.5
2005-07-07 07:33:04 51°22.736 2°51.957 28.8 12 15 22.3
2005-07-07 07:33:09 51°22.753 2°51.969 28.1 12 21 22.5
2005-07-07 07:33:13 51°22.766 2°51.974 27.3 12 15 22.3
2005-07-07 07:33:19 51°22.784 2°51.988 29.2 12.2 28 22.7
2005-07-07 07:33:24 51°22.8 2°51.996 28.5 12.2 20 22.5
2005-07-07 07:33:29 51°22.815 2°52.008 29.3 12.2 20 22.2
2005-07-07 07:33:33 51°22.828 2°52.013 29.7 12.4 24 22.2
2005-07-07 07:33:39 51°22.847 2°52.028 27.8 12.2 19 22.7
2005-07-07 07:33:44 51°22.863 2°52.034 28.5 12.2 19 22.3
2005-07-07 07:33:48 51°22.873 2°52.043 28.3 11.9 17 22.5
2005-07-07 07:33:54 51°22.894 2°52.052 29.4 11.9 17 23
2005-07-07 07:34:00 51°22.911 2°52.066 27.5 11.9 17 22.9
2005-07-07 07:34:04 51°22.924 2°52.07 29.6 12.1 15 22.9
2005-07-07 07:34:09 51°22.94 2°52.084 28.3 12.1 15 22.8
2005-07-07 07:34:14 51°22.955 2°52.089 29.3 12.1 24 22.7
2005-07-07 07:34:19 51°22.972 2°52.103 28.9 12.1 28 22.7
2005-07-07 07:34:24 51°22.986 2°52.111 28.2 12 17 22.8
2005-07-07 07:34:29 51°23.003 2°52.123 30.7 12 17 22.8
2005-07-07 07:34:34 51°23.017 2°52.129 29.7 12 23 22.7
2005-07-07 07:34:39 51°23.034 2°52.142 28.5 12 17 22.2
2005-07-07 07:34:44 51°23.047 2°52.15 29.5 12 20 22.1
2005-07-07 07:34:48 51°23.06 2°52.159 29.7 11.9 22 22
2005-07-07 07:34:53 51°23.076 2°52.167 28.4 11.9 21 21.4
2005-07-07 07:34:59 51°23.096 2°52.18 29.7 11.9 21 20.9
2005-07-07 07:35:04 51°23.11 2°52.188 28.6 12.2 19 22.7
2005-07-07 07:35:09 51°23.127 2°52.199 29.6 12 22 22.5
2005-07-07 07:35:13 51°23.138 2°52.205 28.9 12.1 21 22.7
2005-07-07 07:35:19 51°23.157 2°52.217 27.9 12.1 18 22.6
2005-07-07 07:35:24 51°23.173 2°52.227 29.3 12.1 18 22.2
2005-07-07 07:35:29 51°23.191 2°52.235 28.2 12.1 18 21.5
2005-07-07 07:35:34 51°23.204 2°52.245 27.3 12 16 21.4
2005-07-07 07:35:39 51°23.221 2°52.254 29 12 16 21.2
2005-07-07 07:35:44 51°23.236 2°52.261 28.1 12 18 21.5
2005-07-07 07:35:48 51°23.25 2°52.27 26.9 12.2 22 19.7
2005-07-07 07:35:54 51°23.267 2°52.28 25.9 11.9 14 19.9
2005-07-07 07:35:59 51°23.283 2°52.29 29.8 11.6 24 20.5
2005-07-07 07:36:04 51°23.298 2°52.298 28.9 11.6 24 19.7
2005-07-07 07:36:08 51°23.31 2°52.306 28.8 12.1 25 19.3
2005-07-07 07:36:13 51°23.327 2°52.316 28.8 11.8 20 20.1
2005-07-07 07:36:20 51°23.347 2°52.327 29.7 11.8 20 20
2005-07-07 07:36:24 51°23.359 2°52.336 29 11.8 20 20.3
2005-07-07 07:36:29 51°23.376 2°52.346 28.2 11.8 20 19.8
2005-07-07 07:36:33 51°23.389 2°52.355 30.4 12.1 25 19.4
2005-07-07 07:36:39 51°23.407 2°52.362 27.3 12 15 20
2005-07-07 07:36:44 51°23.42 2°52.373 27.5 12 15 19.8
2005-07-07 07:36:49 51°23.439 2°52.38 29.4 12 15 19
2005-07-07 07:36:53 51°23.45 2°52.39 25.4 12.3 13 18.5
2005-07-07 07:36:59 51°23.469 2°52.401 28 12.3 13 19
2005-07-07 07:37:04 51°23.483 2°52.408 28.7 11.8 19 19.3
2005-07-07 07:37:09 51°23.499 2°52.417 28.2 11.8 19 19.3
2005-07-07 07:37:13 51°23.512 2°52.425 28.2 11.8 19 19.4
2005-07-07 07:37:19 51°23.531 2°52.436 27.7 11.8 19 19
2005-07-07 07:37:24 51°23.544 2°52.444 27.6 11.8 19 18.8
2005-07-07 07:37:29 51°23.561 2°52.455 28.4 11.8 19 18.9
2005-07-07 07:37:33 51°23.574 2°52.461 29.7 11.9 21 18.6
2005-07-07 07:37:39 51°23.592 2°52.473 28 12 21 17.3
2005-07-07 07:37:44 51°23.606 2°52.481 28.3 11.8 19 17.7
2005-07-07 07:37:49 51°23.622 2°52.493 29.7 11.7 22 18
2005-07-07 07:37:53 51°23.634 2°52.499 30.5 11.7 22 17.3
2005-07-07 07:37:59 51°23.653 2°52.514 27.9 12.1 16 17.4
2005-07-07 07:38:04 51°23.667 2°52.519 32.4 12.1 16 17.8
2005-07-07 07:38:09 51°23.684 2°52.533 28.3 12.1 16 17.1
2005-07-07 07:38:14 51°23.699 2°52.542 30.1 12.1 16 16.1
2005-07-07 07:38:20 51°23.716 2°52.554 31 11.9 24 16.8
2005-07-07 07:38:24 51°23.728 2°52.562 30.1 11.9 24 17.1
2005-07-07 07:38:29 51°23.743 2°52.576 31.2 11.9 24 15.5
2005-07-07 07:38:34 51°23.759 2°52.585 33.9 11.9 24 16.5
2005-07-07 07:38:39 51°23.774 2°52.596 29.5 11.9 20 16.9
2005-07-07 07:38:44 51°23.787 2°52.606 30.9 11.9 20 17
2005-07-07 07:38:49 51°23.804 2°52.618 33 11.9 20 17
2005-07-07 07:38:53 51°23.816 2°52.626 31.6 11.9 24 16.5
2005-07-07 07:39:00 51°23.836 2°52.64 31.9 12.2 25 16.1
2005-07-07 07:39:04 51°23.848 2°52.647 30.1 12.2 22 15.7
2005-07-07 07:39:09 51°23.864 2°52.66 30.6 11.6 27 16.4
2005-07-07 07:39:14 51°23.88 2°52.669 32 11.7 26 16.6
2005-07-07 07:39:19 51°23.895 2°52.681 30.6 11.7 26 14.7
2005-07-07 07:39:24 51°23.909 2°52.689 31.3 11.7 26 15.7
2005-07-07 07:39:29 51°23.924 2°52.703 32.6 11.7 26 16.4
2005-07-07 07:39:34 51°23.938 2°52.712 32.3 11.7 26 16.2
2005-07-07 07:39:40 51°23.955 2°52.727 32.2 11.7 26 16.2
2005-07-07 07:39:44 51°23.969 2°52.735 33 -999 -999 15.6
2005-07-07 07:39:49 51°23.983 2°52.747 31.4 11.4 26 14.6
2005-07-07 07:39:53 51°23.994 2°52.756 34.1 11.4 26 16
2005-07-07 07:39:59 51°24.013 2°52.769 32.8 11.4 26 15.9
2005-07-07 07:40:04 51°24.026 2°52.779 32 11.4 26 15.3
2005-07-07 07:40:10 51°24.042 2°52.795 32.8 11.4 28 15.9
2005-07-07 07:40:14 51°24.055 2°52.8 34.6 11.4 28 16.2
2005-07-07 07:40:20 51°24.073 2°52.817 31.5 11.4 28 14.7
2005-07-07 07:40:25 51°24.088 2°52.825 32.9 11.4 28 15.2
2005-07-07 07:40:29 51°24.1 2°52.837 31.2 11.5 34 15
2005-07-07 07:40:33 51°24.113 2°52.845 33.9 11.5 34 15
2005-07-07 07:40:39 51°24.131 2°52.858 31.8 11.5 34 15.9
2005-07-07 07:40:44 51°24.144 2°52.868 31.2 11.5 34 16.4
2005-07-07 07:40:49 51°24.161 2°52.879 32.2 11.7 24 17.2
2005-07-07 07:40:54 51°24.174 2°52.889 31.2 11.7 24 17.5
2005-07-07 07:41:00 51°24.193 2°52.901 32.1 11.7 24 17.5
2005-07-07 07:41:05 51°24.208 2°52.912 31.2 11.7 24 17.7
2005-07-07 07:41:09 51°24.221 2°52.922 31.8 11.8 24 17.9
2005-07-07 07:41:14 51°24.236 2°52.93 31.9 12 26 17.8
2005-07-07 07:41:19 51°24.253 2°52.94 29.6 12.1 21 17.6
2005-07-07 07:41:24 51°24.267 2°52.949 28.1 11.8 19 17.9
2005-07-07 07:41:29 51°24.284 2°52.959 29.2 11.8 19 17.6
2005-07-07 07:41:33 51°24.295 2°52.964 27.5 12.1 18 17.9
2005-07-07 07:41:39 51°24.314 2°52.975 27.8 12.1 20 18.1
2005-07-07 07:41:44 51°24.329 2°52.984 26.8 12.1 20 18.2
2005-07-07 07:41:49 51°24.346 2°52.992 27.5 12.1 20 18.3
2005-07-07 07:41:54 51°24.361 2°53.002 26.3 12.1 15 17.8
2005-07-07 07:41:59 51°24.379 2°53.008 27.3 12.1 15 16.4
2005-07-07 07:42:04 51°24.393 2°53.018 26.2 12.1 15 15.3
2005-07-07 07:42:09 51°24.409 2°53.024 26.9 12.1 15 15.6
2005-07-07 07:42:13 51°24.422 2°53.034 26.5 11.9 21 15.5
2005-07-07 07:42:19 51°24.441 2°53.043 28.3 11.9 21 15.4
2005-07-07 07:42:24 51°24.455 2°53.052 27.8 11.8 23 15.8
2005-07-07 07:42:29 51°24.472 2°53.061 27.5 11.8 23 16.5
2005-07-07 07:42:33 51°24.485 2°53.069 27.6 11.8 23 16.5
2005-07-07 07:42:39 51°24.503 2°53.079 25.3 11.8 23 16.8
2005-07-07 07:42:44 51°24.518 2°53.085 27.9 11.8 23 17.4
2005-07-07 07:42:49 51°24.534 2°53.096 26.8 11.8 23 17.9
2005-07-07 07:42:54 51°24.549 2°53.102 28.2 -999 -999 17.5
2005-07-07 07:43:00 51°24.567 2°53.114 27.3 12 16 17.9
2005-07-07 07:43:04 51°24.58 2°53.12 27 12 19 17.9
2005-07-07 07:43:09 51°24.596 2°53.13 27.8 11.8 20 17.4
2005-07-07 07:43:13 51°24.61 2°53.138 27.4 11.8 20 17.2
2005-07-07 07:43:19 51°24.629 2°53.148 26.8 12.1 19 18.2
2005-07-07 07:43:24 51°24.643 2°53.158 27.9 12.1 19 18.8
2005-07-07 07:43:29 51°24.66 2°53.166 26.6 12.1 19 19.4
2005-07-07 07:43:34 51°24.674 2°53.177 27.5 11.9 19 19
2005-07-07 07:43:38 51°24.69 2°53.18 26.5 12.2 24 18.8
2005-07-07 07:43:44 51°24.707 2°53.191 26.5 12.2 24 19
2005-07-07 07:43:49 51°24.724 2°53.2 25.2 12.2 13 17.9
2005-07-07 07:43:53 51°24.736 2°53.208 25.9 11.9 18 15.7
2005-07-07 07:43:59 51°24.756 2°53.218 27.7 11.9 22 16.8
2005-07-07 07:44:04 51°24.77 2°53.225 25.6 11.9 22 17.4
2005-07-07 07:44:09 51°24.786 2°53.235 26.5 11.9 22 17.9
2005-07-07 07:44:13 51°24.799 2°53.24 27.5 11.8 20 17.9
2005-07-07 07:44:19 51°24.816 2°53.252 26.7 12 16 18.1
2005-07-07 07:44:24 51°24.832 2°53.259 27.5 11.9 18 17.8
2005-07-07 07:44:29 51°24.849 2°53.27 27.6 11.9 18 16.2
2005-07-07 07:44:33 51°24.862 2°53.276 28.3 12 20 17.2
2005-07-07 07:44:39 51°24.881 2°53.286 25.7 12.1 17 17.8
2005-07-07 07:44:44 51°24.894 2°53.295 27.2 12.1 17 18.3
2005-07-07 07:44:49 51°24.912 2°53.304 27.3 12.1 17 18.6
2005-07-07 07:44:53 51°24.924 2°53.312 27.4 12.1 23 19.1
2005-07-07 07:45:00 51°24.945 2°53.324 26.3 12.1 23 19.1
2005-07-07 07:45:04 51°24.957 2°53.33 28.3 12.1 20 19.3
2005-07-07 07:45:09 51°24.974 2°53.341 27.2 12.1 20 19
2005-07-07 07:45:14 51°24.989 2°53.349 27.3 12 21 17.7
2005-07-07 07:45:19 51°25.006 2°53.358 27.3 11.9 20 18.4
2005-07-07 07:45:24 51°25.02 2°53.365 26.8 11.9 20 19.5
2005-07-07 07:45:29 51°25.036 2°53.376 26.8 11.9 20 20.3
2005-07-07 07:45:33 51°25.049 2°53.384 27.6 11.9 20 19.6
2005-07-07 07:45:39 51°25.068 2°53.394 28.3 12 18 20.2
2005-07-07 07:45:44 51°25.082 2°53.403 27.8 12 21 20.3
2005-07-07 07:45:49 51°25.098 2°53.41 26.8 12 19 21.2
2005-07-07 07:45:53 51°25.111 2°53.421 27.7 12 20 21
2005-07-07 07:46:00 51°25.131 2°53.434 27.3 12.2 20 20.6
2005-07-07 07:46:04 51°25.145 2°53.439 28.7 12.2 20 20.8
2005-07-07 07:46:09 51°25.161 2°53.452 28.2 12.2 20 20.6
2005-07-07 07:46:14 51°25.176 2°53.459 27.9 12.1 20 20.9
2005-07-07 07:46:17 51°25.187 2°53.466 27 12.1 21 21.2
2005-07-07 07:46:24 51°25.207 2°53.476 25.6 11.9 16 21
2005-07-07 07:46:29 51°25.225 2°53.487 27.8 11.9 16 21.2
2005-07-07 07:46:33 51°25.238 2°53.493 27.1 12.3 16 21.3
2005-07-07 07:46:39 51°25.254 2°53.504 25.4 12 17 21.2
2005-07-07 07:46:44 51°25.271 2°53.511 28.2 12 17 21
2005-07-07 07:46:49 51°25.287 2°53.524 27.4 12 17 20.5
2005-07-07 07:46:54 51°25.302 2°53.53 26.9 12 17 20.3
2005-07-07 07:46:59 51°25.319 2°53.541 26.3 12 17 20.3
2005-07-07 07:47:04 51°25.333 2°53.549 26.8 12 17 20.4
2005-07-07 07:47:09 51°25.35 2°53.559 27.2 -999 -999 20.7
2005-07-07 07:47:14 51°25.364 2°53.569 27.9 11.9 21 20.8
2005-07-07 07:47:19 51°25.382 2°53.574 27.6 12.2 21 21
2005-07-07 07:47:24 51°25.396 2°53.588 25.4 11.7 25 21.1
2005-07-07 07:47:28 51°25.408 2°53.591 28 11.9 14 21
2005-07-07 07:47:34 51°25.426 2°53.606 28.7 11.8 18 21.5
2005-07-07 07:47:39 51°25.443 2°53.614 28.3 11.8 18 21.7
2005-07-07 07:47:44 51°25.456 2°53.625 28.5 11.8 22 21.9
2005-07-07 07:47:49 51°25.472 2°53.631 28.1 11.9 23 21.9
2005-07-07 07:47:54 51°25.488 2°53.641 26.3 11.9 23 22.1
2005-07-07 07:48:00 51°25.506 2°53.652 27.8 11.9 19 22.3
2005-07-07 07:48:04 51°25.519 2°53.659 27.7 11.9 19 22.7
2005-07-07 07:48:09 51°25.536 2°53.668 26.2 12 18 23
2005-07-07 07:48:13 51°25.548 2°53.676 26.5 12 18 23
2005-07-07 07:48:19 51°25.568 2°53.687 27.6 11.9 23 23.3
2005-07-07 07:48:24 51°25.584 2°53.696 27.4 12.3 23 23.7
2005-07-07 07:48:29 51°25.599 2°53.703 25.8 12.3 23 23.6
2005-07-07 07:48:33 51°25.612 2°53.712 26.8 11.8 21 23.8
2005-07-07 07:48:39 51°25.631 2°53.723 26.4 11.8 21 24
2005-07-07 07:48:44 51°25.648 2°53.73 27.5 12.2 22 24.3
2005-07-07 07:48:49 51°25.662 2°53.742 26.1 11.9 23 24.5
2005-07-07 07:48:54 51°25.677 2°53.748 27.7 11.9 23 24.5
2005-07-07 07:48:59 51°25.695 2°53.759 27.6 11.9 23 24.8
2005-07-07 07:49:04 51°25.708 2°53.768 26.9 12.1 20 24.9
2005-07-07 07:49:10 51°25.728 2°53.778 28.1 12.1 20 24.7
2005-07-07 07:49:13 51°25.739 2°53.784 26.8 12.1 20 25
2005-07-07 07:49:19 51°25.757 2°53.797 25.5 12.2 16 24.8
2005-07-07 07:49:24 51°25.772 2°53.804 28.6 12.2 16 24.7
2005-07-07 07:49:29 51°25.79 2°53.814 26.3 12.2 16 24.8
2005-07-07 07:49:33 51°25.802 2°53.82 25.8 12.1 19 25
2005-07-07 07:49:39 51°25.82 2°53.834 25.4 11.8 17 24.8
2005-07-07 07:49:44 51°25.837 2°53.839 29 12.2 21 24.8
2005-07-07 07:49:49 51°25.852 2°53.85 25.1 12.2 21 24.7
2005-07-07 07:49:53 51°25.865 2°53.857 27.9 12.2 21 24.4
2005-07-07 07:49:59 51°25.883 2°53.868 26.5 12 18 24.2
2005-07-07 07:50:04 51°25.897 2°53.877 27.5 12 18 24.1
2005-07-07 07:50:09 51°25.914 2°53.886 28.6 12 18 24.2
2005-07-07 07:50:13 51°25.926 2°53.896 27.6 12 18 24.4
2005-07-07 07:50:19 51°25.946 2°53.906 27.9 12 18 24.2
2005-07-07 07:50:24 51°25.959 2°53.915 27.7 12 18 24.1
2005-07-07 07:50:29 51°25.976 2°53.926 28.4 11.9 23 24.1
2005-07-07 07:50:34 51°25.991 2°53.934 29.1 11.9 23 24.3
2005-07-07 07:50:39 51°26.007 2°53.946 26.6 11.9 21 24.2
2005-07-07 07:50:44 51°26.021 2°53.956 28.9 11.9 21 24
2005-07-07 07:50:49 51°26.038 2°53.965 28.9 11.9 21 24.1
2005-07-07 07:50:54 51°26.051 2°53.978 28.3 12.1 32 23.9
2005-07-07 07:50:59 51°26.069 2°53.987 30.1 12.1 32 23.8
2005-07-07 07:51:04 51°26.082 2°53.997 28.4 12.1 32 24
2005-07-07 07:51:09 51°26.099 2°54.007 29.8 11.9 25 24.5
2005-07-07 07:51:14 51°26.113 2°54.018 28.3 11.9 25 24.4
2005-07-07 07:51:19 51°26.13 2°54.027 29.6 12 23 24.6
2005-07-07 07:51:24 51°26.144 2°54.039 29 12 19 24.5
2005-07-07 07:51:29 51°26.16 2°54.047 30.4 12.3 28 24.8
2005-07-07 07:51:33 51°26.173 2°54.059 28.9 12.3 28 24.6
2005-07-07 07:51:39 51°26.192 2°54.068 30.9 12.2 17 24
2005-07-07 07:51:44 51°26.205 2°54.081 29.6 12.2 17 23.6
2005-07-07 07:51:49 51°26.222 2°54.092 29.6 12.2 17 23.4
2005-07-07 07:51:53 51°26.234 2°54.101 31.5 12 29 24.9
2005-07-07 07:52:00 51°26.255 2°54.114 28.8 12 29 25.7
2005-07-07 07:52:04 51°26.267 2°54.121 29.3 12 29 26
2005-07-07 07:52:09 51°26.284 2°54.134 29.8 12 29 26.1
2005-07-07 07:52:14 51°26.3 2°54.143 29.3 12.3 23 26.5
2005-07-07 07:52:19 51°26.315 2°54.154 28.7 11.9 22 26.5
2005-07-07 07:52:24 51°26.329 2°54.163 29.7 11.9 22 26.5
2005-07-07 07:52:29 51°26.346 2°54.175 29.8 12.2 22 26.5
2005-07-07 07:52:34 51°26.361 2°54.184 29.4 12.2 22 26.4
2005-07-07 07:52:40 51°26.379 2°54.196 29 12.2 22 26.1
2005-07-07 07:52:44 51°26.393 2°54.207 29.1 12.2 22 26
2005-07-07 07:52:49 51°26.409 2°54.216 30.1 12.2 27 25.4
2005-07-07 07:52:54 51°26.422 2°54.227 28.4 12.2 18 25.1
2005-07-07 07:52:59 51°26.44 2°54.236 30.3 12.2 18 25.6
2005-07-07 07:53:04 51°26.453 2°54.247 27.6 12.2 18 25.9
2005-07-07 07:53:09 51°26.47 2°54.257 29.6 12.2 18 26
2005-07-07 07:53:14 51°26.486 2°54.269 29.8 12.2 18 26.8
2005-07-07 07:53:17 51°26.495 2°54.273 29.4 12.1 19 27.5
2005-07-07 07:53:24 51°26.515 2°54.288 29.7 12.1 19 28
2005-07-07 07:53:29 51°26.531 2°54.297 27.9 12.1 19 28.1
2005-07-07 07:53:33 51°26.545 2°54.309 29.4 12.2 23 28.2
2005-07-07 07:53:39 51°26.563 2°54.318 29.9 12.4 21 28.2
2005-07-07 07:53:44 51°26.58 2°54.33 29.6 12 27 28.3
2005-07-07 07:53:49 51°26.594 2°54.343 29.1 12 27 28.2
2005-07-07 07:53:55 51°26.613 2°54.353 31.5 12 27 27.7
2005-07-07 07:54:00 51°26.627 2°54.364 28.6 12.2 24 27.4
2005-07-07 07:54:04 51°26.642 2°54.372 29.7 12.2 24 26.9
2005-07-07 07:54:09 51°26.657 2°54.383 29.4 12.2 24 26.3
2005-07-07 07:54:14 51°26.671 2°54.39 27.5 12.1 21 25.5
2005-07-07 07:54:19 51°26.688 2°54.403 27.8 12 24 24.7
2005-07-07 07:54:24 51°26.705 2°54.411 29.6 12 24 24.3
2005-07-07 07:54:29 51°26.72 2°54.422 27.8 12 24 23.5
2005-07-07 07:54:33 51°26.732 2°54.428 28.9 12 25 22.8
2005-07-07 07:54:40 51°26.752 2°54.441 27.9 12 25 20.8
2005-07-07 07:54:44 51°26.765 2°54.448 29 11.9 25 20.5
2005-07-07 07:54:49 51°26.781 2°54.459 27.1 11.9 25 21.4
2005-07-07 07:54:54 51°26.797 2°54.468 30.1 11.9 25 22.2
2005-07-07 07:54:59 51°26.811 2°54.48 26.8 11.4 23 22
2005-07-07 07:55:04 51°26.826 2°54.489 31.4 11.4 23 22.9
2005-07-07 07:55:09 51°26.842 2°54.497 29.2 11.4 23 23.5
2005-07-07 07:55:13 51°26.853 2°54.507 27.8 11.4 23 23.7
2005-07-07 07:55:19 51°26.871 2°54.518 28 11.5 20 24.2
2005-07-07 07:55:24 51°26.884 2°54.529 30.7 11.6 29 24.5
2005-07-07 07:55:29 51°26.901 2°54.537 30.8 11.7 22 25.1
2005-07-07 07:55:33 51°26.912 2°54.548 29 11.7 22 25.6
2005-07-07 07:55:40 51°26.932 2°54.56 28.9 11.7 22 25.8
2005-07-07 07:55:44 51°26.945 2°54.571 29.6 11.7 27 26.4
2005-07-07 07:55:49 51°26.959 2°54.577 31 11.7 27 26.9
2005-07-07 07:55:54 51°26.973 2°54.592 28.3 11.8 17 26.8
2005-07-07 07:55:59 51°26.991 2°54.6 30.7 12.1 17 27